createdAt,value
2023-10-06T00:00:00.955Z,172
2023-10-06T00:00:32.817Z,173
2023-10-06T00:01:04.045Z,211
2023-10-06T00:01:35.428Z,211
2023-10-06T00:02:09.198Z,242
2023-10-06T00:02:35.877Z,232
2023-10-06T00:02:56.076Z,242
2023-10-06T00:03:27.978Z,257
2023-10-06T00:04:00.084Z,258
2023-10-06T00:04:32.084Z,259
2023-10-06T00:05:04.285Z,232
2023-10-06T00:05:35.490Z,224
2023-10-06T00:05:52.273Z,225
2023-10-06T00:06:24.944Z,225
2023-10-06T00:06:41.884Z,224
2023-10-06T00:07:12.001Z,224
2023-10-06T00:07:35.532Z,224
2023-10-06T00:08:00.052Z,224
2023-10-06T00:08:32.849Z,224
2023-10-06T00:09:04.332Z,245
2023-10-06T00:09:37.269Z,240
2023-10-06T00:10:08.294Z,262
2023-10-06T00:10:35.490Z,262
2023-10-06T00:10:56.132Z,261
2023-10-06T00:11:27.983Z,261
2023-10-06T00:12:00.971Z,261
2023-10-06T00:12:31.993Z,261
2023-10-06T00:13:03.984Z,260
2023-10-06T00:13:35.586Z,259
2023-10-06T00:13:52.026Z,259
2023-10-06T00:14:24.938Z,260
2023-10-06T00:14:41.972Z,260
2023-10-06T00:15:12.199Z,260
2023-10-06T00:15:35.267Z,261
2023-10-06T00:16:00.200Z,261
2023-10-06T00:16:32.819Z,261
2023-10-06T00:17:04.088Z,261
2023-10-06T00:17:35.268Z,261
2023-10-06T00:18:08.682Z,261
2023-10-06T00:18:35.175Z,261
2023-10-06T00:18:55.968Z,262
2023-10-06T00:19:28.033Z,259
2023-10-06T00:20:00.040Z,276
2023-10-06T00:20:32.123Z,258
2023-10-06T00:21:05.594Z,242
2023-10-06T00:21:35.212Z,225
2023-10-06T00:21:52.088Z,261
2023-10-06T00:22:24.972Z,262
2023-10-06T00:22:41.965Z,261
2023-10-06T00:23:11.939Z,245
2023-10-06T00:23:35.354Z,245
2023-10-06T00:23:59.968Z,250
2023-10-06T00:24:32.790Z,255
2023-10-06T00:25:04.321Z,255
2023-10-06T00:25:35.959Z,255
2023-10-06T00:26:08.150Z,255
2023-10-06T00:26:35.274Z,255
2023-10-06T00:26:56.697Z,255
2023-10-06T00:27:27.987Z,255
2023-10-06T00:28:00.034Z,257
2023-10-06T00:28:31.988Z,257
2023-10-06T00:29:04.084Z,257
2023-10-06T00:29:35.247Z,257
2023-10-06T00:30:07.882Z,257
2023-10-06T00:30:24.992Z,257
2023-10-06T00:30:42.071Z,257
2023-10-06T00:31:12.015Z,257
2023-10-06T00:31:35.266Z,257
2023-10-06T00:32:01.020Z,257
2023-10-06T00:32:32.093Z,257
2023-10-06T00:33:04.895Z,257
2023-10-06T00:33:35.683Z,257
2023-10-06T00:34:07.830Z,257
2023-10-06T00:34:24.777Z,257
2023-10-06T00:34:41.788Z,257
2023-10-06T00:35:12.170Z,257
2023-10-06T00:35:35.247Z,257
2023-10-06T00:36:00.842Z,257
2023-10-06T00:36:31.940Z,232
2023-10-06T00:37:04.746Z,232
2023-10-06T00:37:35.275Z,232
2023-10-06T00:37:52.471Z,239
2023-10-06T00:38:24.053Z,240
2023-10-06T00:38:41.121Z,240
2023-10-06T00:39:18.532Z,240
2023-10-06T00:39:51.329Z,240
2023-10-06T00:40:16.145Z,240
2023-10-06T00:40:35.955Z,240
2023-10-06T00:41:04.881Z,242
2023-10-06T00:41:35.276Z,242
2023-10-06T00:42:07.673Z,242
2023-10-06T00:42:24.707Z,242
2023-10-06T00:42:41.919Z,242
2023-10-06T00:43:11.998Z,242
2023-10-06T00:43:35.321Z,242
2023-10-06T00:44:00.095Z,242
2023-10-06T00:44:32.670Z,242
2023-10-06T00:45:04.134Z,242
2023-10-06T00:45:36.514Z,242
2023-10-06T00:46:08.397Z,242
2023-10-06T00:46:35.408Z,242
2023-10-06T00:46:56.131Z,242
2023-10-06T00:47:28.108Z,242
2023-10-06T00:48:01.794Z,242
2023-10-06T00:48:32.172Z,242
2023-10-06T00:49:04.925Z,242
2023-10-06T00:49:35.417Z,242
2023-10-06T00:50:07.887Z,242
2023-10-06T00:50:24.798Z,242
2023-10-06T00:50:41.939Z,242
2023-10-06T00:51:11.988Z,242
2023-10-06T00:51:35.321Z,242
2023-10-06T00:52:00.112Z,242
2023-10-06T00:52:32.654Z,242
2023-10-06T00:53:04.323Z,242
2023-10-06T00:53:36.003Z,242
2023-10-06T00:54:08.090Z,242
2023-10-06T00:54:35.522Z,242
2023-10-06T00:54:56.121Z,242
2023-10-06T00:55:28.927Z,242
2023-10-06T00:56:01.076Z,242
2023-10-06T00:56:32.082Z,242
2023-10-06T00:57:04.816Z,242
2023-10-06T00:57:35.271Z,242
2023-10-06T00:58:07.529Z,242
2023-10-06T00:58:24.644Z,242
2023-10-06T00:58:41.720Z,242
2023-10-06T00:59:12.238Z,242
2023-10-06T00:59:35.234Z,242
2023-10-06T01:00:00.103Z,242
2023-10-06T01:00:32.981Z,242
2023-10-06T01:01:03.933Z,242
2023-10-06T01:01:36.711Z,242
2023-10-06T01:02:08.272Z,242
2023-10-06T01:02:35.420Z,242
2023-10-06T01:02:56.193Z,242
2023-10-06T01:03:28.125Z,243
2023-10-06T01:04:00.990Z,243
2023-10-06T01:04:31.998Z,243
2023-10-06T01:05:05.031Z,242
2023-10-06T01:05:35.581Z,243
2023-10-06T01:05:52.204Z,243
2023-10-06T01:06:24.070Z,242
2023-10-06T01:06:41.315Z,242
2023-10-06T01:07:12.730Z,242
2023-10-06T01:07:35.260Z,242
2023-10-06T01:08:00.005Z,243
2023-10-06T01:08:32.002Z,243
2023-10-06T01:09:04.027Z,243
2023-10-06T01:09:35.276Z,243
2023-10-06T01:09:52.124Z,243
2023-10-06T01:10:25.050Z,243
2023-10-06T01:10:41.943Z,243
2023-10-06T01:11:11.953Z,243
2023-10-06T01:11:35.367Z,243
2023-10-06T01:12:00.010Z,243
2023-10-06T01:12:32.734Z,243
2023-10-06T01:13:03.967Z,243
2023-10-06T01:13:36.240Z,243
2023-10-06T01:14:08.241Z,243
2023-10-06T01:14:35.416Z,243
2023-10-06T01:14:56.144Z,243
2023-10-06T01:15:28.188Z,243
2023-10-06T01:16:00.923Z,243
2023-10-06T01:16:32.098Z,243
2023-10-06T01:17:04.694Z,243
2023-10-06T01:17:35.385Z,243
2023-10-06T01:18:07.665Z,243
2023-10-06T01:18:24.647Z,243
2023-10-06T01:18:41.806Z,243
2023-10-06T01:19:11.973Z,243
2023-10-06T01:19:35.395Z,243
2023-10-06T01:20:00.022Z,244
2023-10-06T01:20:33.141Z,244
2023-10-06T01:21:03.902Z,244
2023-10-06T01:21:37.159Z,244
2023-10-06T01:22:08.349Z,244
2023-10-06T01:22:35.243Z,244
2023-10-06T01:22:56.136Z,244
2023-10-06T01:23:28.084Z,244
2023-10-06T01:24:00.954Z,244
2023-10-06T01:24:32.002Z,244
2023-10-06T01:25:04.876Z,242
2023-10-06T01:25:35.315Z,243
2023-10-06T01:25:52.379Z,243
2023-10-06T01:26:24.918Z,242
2023-10-06T01:26:41.852Z,238
2023-10-06T01:27:11.929Z,239
2023-10-06T01:27:35.228Z,239
2023-10-06T01:28:00.045Z,239
2023-10-06T01:28:32.772Z,241
2023-10-06T01:29:04.000Z,241
2023-10-06T01:29:36.305Z,241
2023-10-06T01:30:08.531Z,241
2023-10-06T01:30:35.435Z,241
2023-10-06T01:30:56.274Z,241
2023-10-06T01:31:28.024Z,241
2023-10-06T01:32:00.789Z,241
2023-10-06T01:32:32.148Z,241
2023-10-06T01:33:04.900Z,241
2023-10-06T01:33:35.518Z,241
2023-10-06T01:33:51.874Z,241
2023-10-06T01:34:24.045Z,241
2023-10-06T01:34:41.215Z,241
2023-10-06T01:35:12.890Z,241
2023-10-06T01:35:35.433Z,242
2023-10-06T01:36:00.236Z,242
2023-10-06T01:36:32.726Z,242
2023-10-06T01:37:04.008Z,242
2023-10-06T01:37:36.130Z,242
2023-10-06T01:38:08.241Z,242
2023-10-06T01:38:35.225Z,242
2023-10-06T01:38:56.065Z,242
2023-10-06T01:39:28.042Z,242
2023-10-06T01:40:01.049Z,242
2023-10-06T01:40:31.940Z,244
2023-10-06T01:41:03.950Z,244
2023-10-06T01:41:35.340Z,244
2023-10-06T01:42:07.694Z,244
2023-10-06T01:42:24.809Z,244
2023-10-06T01:42:41.774Z,244
2023-10-06T01:43:11.917Z,244
2023-10-06T01:43:35.332Z,244
2023-10-06T01:44:01.229Z,244
2023-10-06T01:44:31.990Z,244
2023-10-06T01:45:05.152Z,244
2023-10-06T01:45:36.032Z,244
2023-10-06T01:46:08.220Z,244
2023-10-06T01:46:35.382Z,244
2023-10-06T01:46:56.171Z,242
2023-10-06T01:47:28.856Z,242
2023-10-06T01:48:00.098Z,242
2023-10-06T01:48:31.959Z,242
2023-10-06T01:49:04.010Z,242
2023-10-06T01:49:35.508Z,242
2023-10-06T01:50:09.029Z,218
2023-10-06T01:50:35.229Z,225
2023-10-06T01:50:56.304Z,225
2023-10-06T01:51:28.814Z,225
2023-10-06T01:52:09.307Z,225
2023-10-06T01:52:31.984Z,225
2023-10-06T01:53:03.993Z,225
2023-10-06T01:53:35.258Z,263
2023-10-06T01:54:08.775Z,263
2023-10-06T01:54:35.500Z,263
2023-10-06T01:54:56.712Z,263
2023-10-06T01:55:28.998Z,263
2023-10-06T01:56:00.056Z,263
2023-10-06T01:56:32.759Z,268
2023-10-06T01:57:03.962Z,268
2023-10-06T01:57:36.230Z,268
2023-10-06T01:58:08.147Z,269
2023-10-06T01:58:35.784Z,269
2023-10-06T01:58:56.786Z,269
2023-10-06T01:59:28.028Z,270
2023-10-06T02:00:01.400Z,270
2023-10-06T02:00:31.915Z,271
2023-10-06T02:01:04.018Z,271
2023-10-06T02:01:35.632Z,271
2023-10-06T02:01:52.042Z,279
2023-10-06T02:02:25.076Z,279
2023-10-06T02:02:41.992Z,279
2023-10-06T02:03:12.189Z,282
2023-10-06T02:03:36.139Z,282
2023-10-06T02:04:00.849Z,282
2023-10-06T02:04:32.066Z,282
2023-10-06T02:05:04.429Z,282
2023-10-06T02:05:35.768Z,282
2023-10-06T02:06:08.041Z,282
2023-10-06T02:06:35.237Z,279
2023-10-06T02:06:56.284Z,280
2023-10-06T02:07:28.756Z,280
2023-10-06T02:08:00.068Z,280
2023-10-06T02:08:32.003Z,280
2023-10-06T02:09:03.964Z,280
2023-10-06T02:09:35.264Z,280
2023-10-06T02:10:08.947Z,280
2023-10-06T02:10:35.349Z,280
2023-10-06T02:10:56.388Z,280
2023-10-06T02:11:28.724Z,280
2023-10-06T02:12:00.109Z,280
2023-10-06T02:12:31.968Z,280
2023-10-06T02:13:03.983Z,280
2023-10-06T02:13:35.628Z,280
2023-10-06T02:13:52.868Z,280
2023-10-06T02:14:24.005Z,280
2023-10-06T02:14:41.123Z,280
2023-10-06T02:15:13.150Z,280
2023-10-06T02:15:35.297Z,280
2023-10-06T02:16:00.564Z,280
2023-10-06T02:16:32.806Z,280
2023-10-06T02:17:04.069Z,280
2023-10-06T02:17:36.744Z,280
2023-10-06T02:18:08.251Z,280
2023-10-06T02:18:35.350Z,280
2023-10-06T02:18:56.741Z,280
2023-10-06T02:19:27.989Z,280
2023-10-06T02:20:01.227Z,280
2023-10-06T02:20:32.040Z,280
2023-10-06T02:21:04.799Z,280
2023-10-06T02:21:35.520Z,280
2023-10-06T02:22:09.201Z,280
2023-10-06T02:22:35.718Z,280
2023-10-06T02:22:56.103Z,280
2023-10-06T02:23:28.785Z,280
2023-10-06T02:24:00.094Z,280
2023-10-06T02:24:32.678Z,280
2023-10-06T02:25:04.159Z,280
2023-10-06T02:25:36.671Z,280
2023-10-06T02:26:08.175Z,280
2023-10-06T02:26:35.298Z,280
2023-10-06T02:26:56.748Z,280
2023-10-06T02:27:28.056Z,281
2023-10-06T02:28:01.067Z,281
2023-10-06T02:28:31.985Z,281
2023-10-06T02:29:03.977Z,281
2023-10-06T02:29:35.990Z,281
2023-10-06T02:30:08.159Z,281
2023-10-06T02:30:35.467Z,281
2023-10-06T02:30:56.618Z,280
2023-10-06T02:31:28.732Z,280
2023-10-06T02:32:00.101Z,280
2023-10-06T02:32:32.796Z,260
2023-10-06T02:33:04.093Z,262
2023-10-06T02:33:36.147Z,262
2023-10-06T02:34:08.328Z,273
2023-10-06T02:34:35.783Z,273
2023-10-06T02:34:56.178Z,273
2023-10-06T02:35:28.283Z,273
2023-10-06T02:36:01.169Z,273
2023-10-06T02:36:32.011Z,273
2023-10-06T02:37:04.921Z,273
2023-10-06T02:37:35.230Z,273
2023-10-06T02:38:07.526Z,273
2023-10-06T02:38:25.270Z,273
2023-10-06T02:38:41.864Z,273
2023-10-06T02:39:11.942Z,273
2023-10-06T02:39:35.374Z,273
2023-10-06T02:40:01.084Z,273
2023-10-06T02:40:31.992Z,273
2023-10-06T02:41:04.006Z,273
2023-10-06T02:41:35.224Z,273
2023-10-06T02:41:51.766Z,273
2023-10-06T02:42:24.880Z,273
2023-10-06T02:42:41.822Z,273
2023-10-06T02:43:12.012Z,273
2023-10-06T02:43:35.285Z,273
2023-10-06T02:44:00.104Z,273
2023-10-06T02:44:32.822Z,273
2023-10-06T02:45:04.292Z,273
2023-10-06T02:45:36.145Z,273
2023-10-06T02:46:08.000Z,273
2023-10-06T02:46:36.252Z,273
2023-10-06T02:46:56.964Z,273
2023-10-06T02:47:28.055Z,277
2023-10-06T02:48:00.133Z,277
2023-10-06T02:48:32.006Z,277
2023-10-06T02:49:03.907Z,278
2023-10-06T02:49:36.109Z,278
2023-10-06T02:50:08.323Z,278
2023-10-06T02:50:35.476Z,278
2023-10-06T02:50:56.777Z,278
2023-10-06T02:51:29.938Z,278
2023-10-06T02:52:00.124Z,277
2023-10-06T02:52:31.913Z,278
2023-10-06T02:53:04.013Z,277
2023-10-06T02:53:35.373Z,277
2023-10-06T02:53:52.724Z,277
2023-10-06T02:54:24.025Z,277
2023-10-06T02:54:41.542Z,277
2023-10-06T02:55:12.093Z,277
2023-10-06T02:55:35.292Z,277
2023-10-06T02:56:01.009Z,277
2023-10-06T02:56:32.032Z,277
2023-10-06T02:57:04.850Z,277
2023-10-06T02:57:35.214Z,277
2023-10-06T02:58:07.494Z,277
2023-10-06T02:58:24.918Z,277
2023-10-06T02:58:41.897Z,276
2023-10-06T02:59:11.923Z,277
2023-10-06T02:59:35.365Z,277
2023-10-06T03:00:00.129Z,277
2023-10-06T03:00:33.029Z,277
2023-10-06T03:01:03.969Z,277
2023-10-06T03:01:36.368Z,278
2023-10-06T03:02:08.300Z,277
2023-10-06T03:02:35.412Z,277
2023-10-06T03:02:56.138Z,277
2023-10-06T03:03:27.996Z,277
2023-10-06T03:04:00.931Z,277
2023-10-06T03:04:32.082Z,277
2023-10-06T03:05:04.172Z,277
2023-10-06T03:05:35.378Z,277
2023-10-06T03:06:07.488Z,277
2023-10-06T03:06:24.858Z,182
2023-10-06T03:06:41.817Z,186
2023-10-06T03:07:11.959Z,204
2023-10-06T03:07:35.282Z,204
2023-10-06T03:08:00.949Z,221
2023-10-06T03:08:31.998Z,260
2023-10-06T03:09:03.990Z,266
2023-10-06T03:09:35.314Z,267
2023-10-06T03:10:07.913Z,267
2023-10-06T03:10:24.891Z,273
2023-10-06T03:10:42.071Z,253
2023-10-06T03:11:11.942Z,267
2023-10-06T03:11:36.040Z,272
2023-10-06T03:12:00.184Z,272
2023-10-06T03:12:32.874Z,272
2023-10-06T03:13:04.011Z,272
2023-10-06T03:13:35.477Z,272
2023-10-06T03:14:08.679Z,272
2023-10-06T03:14:35.289Z,272
2023-10-06T03:14:56.087Z,272
2023-10-06T03:15:29.335Z,272
2023-10-06T03:16:00.012Z,272
2023-10-06T03:16:31.975Z,272
2023-10-06T03:17:03.994Z,272
2023-10-06T03:17:35.388Z,273
2023-10-06T03:18:08.951Z,276
2023-10-06T03:18:36.269Z,276
2023-10-06T03:18:56.152Z,276
2023-10-06T03:19:28.000Z,276
2023-10-06T03:20:00.105Z,277
2023-10-06T03:20:32.315Z,234
2023-10-06T03:21:03.994Z,242
2023-10-06T03:21:35.877Z,243
2023-10-06T03:22:08.296Z,243
2023-10-06T03:22:35.433Z,243
2023-10-06T03:22:56.030Z,274
2023-10-06T03:23:28.725Z,277
2023-10-06T03:24:00.074Z,277
2023-10-06T03:24:32.728Z,277
2023-10-06T03:25:04.282Z,277
2023-10-06T03:25:36.597Z,277
2023-10-06T03:26:08.636Z,277
2023-10-06T03:26:35.321Z,277
2023-10-06T03:26:57.563Z,277
2023-10-06T03:27:28.088Z,277
2023-10-06T03:28:00.093Z,277
2023-10-06T03:28:31.963Z,277
2023-10-06T03:29:04.326Z,277
2023-10-06T03:29:35.289Z,277
2023-10-06T03:30:07.983Z,277
2023-10-06T03:30:24.870Z,277
2023-10-06T03:30:42.082Z,276
2023-10-06T03:31:11.985Z,277
2023-10-06T03:31:35.892Z,277
2023-10-06T03:32:00.912Z,277
2023-10-06T03:32:31.936Z,277
2023-10-06T03:33:04.976Z,277
2023-10-06T03:33:35.301Z,277
2023-10-06T03:34:08.187Z,277
2023-10-06T03:34:24.854Z,277
2023-10-06T03:34:41.801Z,277
2023-10-06T03:35:12.130Z,277
2023-10-06T03:35:35.240Z,277
2023-10-06T03:36:00.219Z,277
2023-10-06T03:36:33.037Z,277
2023-10-06T03:37:03.946Z,277
2023-10-06T03:37:35.845Z,277
2023-10-06T03:38:08.253Z,277
2023-10-06T03:38:35.183Z,277
2023-10-06T03:38:56.893Z,235
2023-10-06T03:39:27.992Z,236
2023-10-06T03:40:17.146Z,210
2023-10-06T03:40:36.340Z,210
2023-10-06T03:41:03.977Z,211
2023-10-06T03:41:35.216Z,211
2023-10-06T03:42:09.454Z,211
2023-10-06T03:42:35.932Z,211
2023-10-06T03:42:56.199Z,211
2023-10-06T03:43:28.747Z,211
2023-10-06T03:44:00.109Z,211
2023-10-06T03:44:32.140Z,211
2023-10-06T03:45:04.220Z,211
2023-10-06T03:45:36.710Z,211
2023-10-06T03:46:08.152Z,213
2023-10-06T03:46:35.296Z,213
2023-10-06T03:46:56.881Z,217
2023-10-06T03:47:28.057Z,219
2023-10-06T03:48:00.058Z,230
2023-10-06T03:48:31.929Z,230
2023-10-06T03:49:03.913Z,217
2023-10-06T03:49:35.329Z,216
2023-10-06T03:50:07.898Z,219
2023-10-06T03:50:24.759Z,210
2023-10-06T03:50:44.221Z,211
2023-10-06T03:51:11.899Z,211
2023-10-06T03:51:35.415Z,211
2023-10-06T03:52:00.055Z,211
2023-10-06T03:52:32.800Z,211
2023-10-06T03:53:04.155Z,211
2023-10-06T03:53:35.321Z,211
2023-10-06T03:54:08.597Z,211
2023-10-06T03:54:35.236Z,211
2023-10-06T03:54:56.051Z,211
2023-10-06T03:55:28.923Z,211
2023-10-06T03:56:00.234Z,211
2023-10-06T03:56:32.864Z,214
2023-10-06T03:57:03.926Z,214
2023-10-06T03:57:35.236Z,214
2023-10-06T03:58:08.652Z,214
2023-10-06T03:58:35.728Z,214
2023-10-06T03:58:56.346Z,214
2023-10-06T03:59:28.018Z,214
2023-10-06T04:00:00.050Z,214
2023-10-06T04:00:32.272Z,214
2023-10-06T04:01:04.077Z,214
2023-10-06T04:01:35.308Z,214
2023-10-06T04:02:07.665Z,214
2023-10-06T04:02:24.753Z,215
2023-10-06T04:02:41.879Z,215
2023-10-06T04:03:11.992Z,271
2023-10-06T04:03:35.502Z,210
2023-10-06T04:04:01.169Z,211
2023-10-06T04:04:32.081Z,211
2023-10-06T04:05:05.052Z,211
2023-10-06T04:05:35.329Z,211
2023-10-06T04:06:07.871Z,211
2023-10-06T04:06:24.823Z,211
2023-10-06T04:06:41.827Z,211
2023-10-06T04:07:12.045Z,223
2023-10-06T04:07:35.229Z,247
2023-10-06T04:08:00.128Z,247
2023-10-06T04:08:32.941Z,247
2023-10-06T04:09:19.920Z,247
2023-10-06T04:09:52.318Z,247
2023-10-06T04:10:24.074Z,262
2023-10-06T04:10:42.016Z,272
2023-10-06T04:11:12.030Z,272
2023-10-06T04:11:35.891Z,273
2023-10-06T04:12:00.786Z,273
2023-10-06T04:12:31.881Z,273
2023-10-06T04:13:04.753Z,273
2023-10-06T04:13:35.214Z,273
2023-10-06T04:13:52.048Z,273
2023-10-06T04:14:23.998Z,273
2023-10-06T04:14:41.130Z,273
2023-10-06T04:15:13.172Z,273
2023-10-06T04:15:35.378Z,273
2023-10-06T04:16:00.233Z,273
2023-10-06T04:16:31.920Z,249
2023-10-06T04:17:04.128Z,261
2023-10-06T04:17:35.319Z,261
2023-10-06T04:17:51.719Z,261
2023-10-06T04:18:25.090Z,260
2023-10-06T04:18:42.496Z,260
2023-10-06T04:19:27.964Z,261
2023-10-06T04:20:00.430Z,261
2023-10-06T04:20:31.961Z,260
2023-10-06T04:21:03.977Z,260
2023-10-06T04:21:35.356Z,260
2023-10-06T04:22:10.167Z,260
2023-10-06T04:22:35.716Z,260
2023-10-06T04:22:56.081Z,260
2023-10-06T04:23:28.720Z,244
2023-10-06T04:24:00.091Z,243
2023-10-06T04:24:32.746Z,243
2023-10-06T04:25:04.333Z,244
2023-10-06T04:25:36.390Z,244
2023-10-06T04:26:08.357Z,247
2023-10-06T04:26:35.757Z,247
2023-10-06T04:26:56.739Z,247
2023-10-06T04:27:28.354Z,247
2023-10-06T04:28:00.890Z,247
2023-10-06T04:28:31.907Z,247
2023-10-06T04:29:04.073Z,247
2023-10-06T04:29:35.277Z,247
2023-10-06T04:30:07.840Z,247
2023-10-06T04:30:24.904Z,247
2023-10-06T04:30:42.832Z,247
2023-10-06T04:31:11.956Z,247
2023-10-06T04:31:36.431Z,247
2023-10-06T04:32:00.183Z,247
2023-10-06T04:32:32.001Z,247
2023-10-06T04:33:03.942Z,247
2023-10-06T04:33:35.319Z,243
2023-10-06T04:34:09.257Z,243
2023-10-06T04:34:35.278Z,243
2023-10-06T04:34:56.149Z,243
2023-10-06T04:35:28.130Z,243
2023-10-06T04:36:00.000Z,243
2023-10-06T04:36:31.940Z,262
2023-10-06T04:37:03.921Z,261
2023-10-06T04:37:35.654Z,261
2023-10-06T04:38:08.192Z,262
2023-10-06T04:38:35.290Z,262
2023-10-06T04:38:57.971Z,262
2023-10-06T04:39:28.807Z,262
2023-10-06T04:40:00.072Z,262
2023-10-06T04:40:32.064Z,261
2023-10-06T04:41:03.976Z,262
2023-10-06T04:41:36.050Z,262
2023-10-06T04:42:08.496Z,261
2023-10-06T04:42:35.413Z,261
2023-10-06T04:42:56.884Z,262
2023-10-06T04:43:27.993Z,266
2023-10-06T04:44:01.454Z,221
2023-10-06T04:44:31.991Z,221
2023-10-06T04:45:04.319Z,220
2023-10-06T04:45:35.278Z,220
2023-10-06T04:45:51.921Z,220
2023-10-06T04:46:24.942Z,220
2023-10-06T04:46:42.667Z,220
2023-10-06T04:47:11.916Z,220
2023-10-06T04:47:35.513Z,225
2023-10-06T04:48:00.223Z,227
2023-10-06T04:48:33.627Z,227
2023-10-06T04:49:03.958Z,237
2023-10-06T04:49:35.406Z,237
2023-10-06T04:49:52.568Z,237
2023-10-06T04:50:24.112Z,230
2023-10-06T04:50:41.254Z,229
2023-10-06T04:51:11.906Z,227
2023-10-06T04:51:35.524Z,228
2023-10-06T04:52:00.945Z,230
2023-10-06T04:52:32.038Z,220
2023-10-06T04:53:06.037Z,220
2023-10-06T04:53:35.394Z,220
2023-10-06T04:54:07.498Z,220
2023-10-06T04:54:24.882Z,220
2023-10-06T04:54:42.661Z,262
2023-10-06T04:55:12.342Z,233
2023-10-06T04:55:35.920Z,228
2023-10-06T04:56:00.173Z,227
2023-10-06T04:56:32.839Z,230
2023-10-06T04:57:03.931Z,240
2023-10-06T04:57:35.225Z,263
2023-10-06T04:57:52.625Z,227
2023-10-06T04:58:23.977Z,243
2023-10-06T04:58:41.530Z,243
2023-10-06T04:59:13.237Z,243
2023-10-06T04:59:35.247Z,243
2023-10-06T05:00:01.096Z,247
2023-10-06T05:00:31.926Z,247
2023-10-06T05:01:03.942Z,247
2023-10-06T05:01:35.269Z,267
2023-10-06T05:01:51.762Z,249
2023-10-06T05:02:24.977Z,268
2023-10-06T05:02:42.828Z,269
2023-10-06T05:03:12.307Z,243
2023-10-06T05:03:35.446Z,247
2023-10-06T05:04:00.019Z,247
2023-10-06T05:04:31.977Z,271
2023-10-06T05:05:05.198Z,260
2023-10-06T05:05:35.229Z,275
2023-10-06T05:05:52.209Z,275
2023-10-06T05:06:23.947Z,275
2023-10-06T05:06:41.069Z,251
2023-10-06T05:07:12.793Z,247
2023-10-06T05:07:35.286Z,247
2023-10-06T05:08:00.034Z,247
2023-10-06T05:08:32.732Z,247
2023-10-06T05:09:03.983Z,277
2023-10-06T05:09:35.355Z,276
2023-10-06T05:10:08.966Z,277
2023-10-06T05:10:35.301Z,277
2023-10-06T05:10:56.199Z,277
2023-10-06T05:11:28.739Z,277
2023-10-06T05:12:00.159Z,277
2023-10-06T05:12:32.751Z,258
2023-10-06T05:13:04.035Z,250
2023-10-06T05:13:37.113Z,250
2023-10-06T05:14:08.232Z,250
2023-10-06T05:14:35.383Z,250
2023-10-06T05:14:56.025Z,249
2023-10-06T05:15:28.216Z,249
2023-10-06T05:16:01.009Z,255
2023-10-06T05:16:32.069Z,260
2023-10-06T05:17:03.985Z,257
2023-10-06T05:17:35.380Z,260
2023-10-06T05:17:51.807Z,214
2023-10-06T05:18:25.877Z,214
2023-10-06T05:18:42.799Z,214
2023-10-06T05:19:11.949Z,214
2023-10-06T05:19:35.803Z,214
2023-10-06T05:20:00.347Z,214
2023-10-06T05:20:32.868Z,214
2023-10-06T05:21:04.122Z,214
2023-10-06T05:21:36.822Z,214
2023-10-06T05:22:08.240Z,214
2023-10-06T05:22:36.162Z,214
2023-10-06T05:22:56.102Z,214
2023-10-06T05:23:27.972Z,214
2023-10-06T05:24:01.057Z,214
2023-10-06T05:24:31.961Z,214
2023-10-06T05:25:05.071Z,214
2023-10-06T05:25:35.383Z,214
2023-10-06T05:26:07.862Z,214
2023-10-06T05:26:24.824Z,214
2023-10-06T05:26:41.945Z,214
2023-10-06T05:27:11.916Z,214
2023-10-06T05:27:35.360Z,214
2023-10-06T05:28:00.867Z,214
2023-10-06T05:28:35.432Z,214
2023-10-06T05:29:04.029Z,214
2023-10-06T05:29:36.983Z,214
2023-10-06T05:29:51.747Z,214
2023-10-06T05:30:25.322Z,215
2023-10-06T05:30:42.834Z,214
2023-10-06T05:31:12.522Z,214
2023-10-06T05:31:35.384Z,214
2023-10-06T05:32:00.254Z,215
2023-10-06T05:32:33.028Z,215
2023-10-06T05:33:04.067Z,215
2023-10-06T05:33:35.654Z,215
2023-10-06T05:33:53.800Z,215
2023-10-06T05:34:24.154Z,215
2023-10-06T05:34:41.181Z,256
2023-10-06T05:35:12.176Z,242
2023-10-06T05:35:35.392Z,243
2023-10-06T05:36:00.949Z,243
2023-10-06T05:36:32.017Z,232
2023-10-06T05:37:04.920Z,241
2023-10-06T05:37:35.277Z,254
2023-10-06T05:37:51.708Z,261
2023-10-06T05:38:24.032Z,260
2023-10-06T05:38:41.324Z,230
2023-10-06T05:39:12.884Z,237
2023-10-06T05:39:36.204Z,239
2023-10-06T05:40:00.591Z,244
2023-10-06T05:40:33.036Z,241
2023-10-06T05:41:04.187Z,222
2023-10-06T05:41:36.484Z,220
2023-10-06T05:42:08.279Z,220
2023-10-06T05:42:35.263Z,220
2023-10-06T05:42:56.352Z,214
2023-10-06T05:43:28.140Z,215
2023-10-06T05:44:01.861Z,214
2023-10-06T05:44:32.691Z,213
2023-10-06T05:45:05.712Z,196
2023-10-06T05:45:35.434Z,197
2023-10-06T05:45:52.023Z,200
2023-10-06T05:46:24.248Z,200
2023-10-06T05:46:41.319Z,200
2023-10-06T05:47:13.033Z,235
2023-10-06T05:47:35.493Z,225
2023-10-06T05:48:00.290Z,262
2023-10-06T05:48:32.984Z,262
2023-10-06T05:49:04.292Z,262
2023-10-06T05:49:35.609Z,262
2023-10-06T05:49:53.421Z,255
2023-10-06T05:50:24.457Z,263
2023-10-06T05:50:41.300Z,269
2023-10-06T05:51:12.652Z,276
2023-10-06T05:51:35.441Z,242
2023-10-06T05:52:00.944Z,287
2023-10-06T05:52:32.137Z,287
2023-10-06T05:53:04.163Z,287
2023-10-06T05:53:35.550Z,287
2023-10-06T05:53:51.771Z,287
2023-10-06T05:54:25.148Z,287
2023-10-06T05:54:42.010Z,287
2023-10-06T05:55:12.444Z,287
2023-10-06T05:55:35.492Z,287
2023-10-06T05:56:00.265Z,286
2023-10-06T05:56:32.932Z,286
2023-10-06T05:57:04.108Z,287
2023-10-06T05:57:36.585Z,287
2023-10-06T05:58:08.225Z,287
2023-10-06T05:58:35.521Z,287
2023-10-06T05:58:56.344Z,285
2023-10-06T05:59:28.123Z,285
2023-10-06T06:00:00.679Z,285
2023-10-06T06:00:32.100Z,233
2023-10-06T06:01:04.214Z,244
2023-10-06T06:01:35.735Z,244
2023-10-06T06:01:51.900Z,244
2023-10-06T06:02:25.009Z,244
2023-10-06T06:02:42.327Z,244
2023-10-06T06:03:12.133Z,248
2023-10-06T06:03:35.417Z,247
2023-10-06T06:04:32.995Z,262
2023-10-06T06:05:04.378Z,261
2023-10-06T06:05:38.378Z,220
2023-10-06T06:06:08.132Z,220
2023-10-06T06:06:35.585Z,225
2023-10-06T06:06:58.681Z,263
2023-10-06T06:07:28.151Z,261
2023-10-06T06:08:00.125Z,262
2023-10-06T06:08:33.025Z,270
2023-10-06T06:09:04.115Z,269
2023-10-06T06:09:36.384Z,269
2023-10-06T06:10:08.342Z,269
2023-10-06T06:10:35.631Z,269
2023-10-06T06:10:56.922Z,261
2023-10-06T06:11:28.113Z,247
2023-10-06T06:12:01.025Z,247
2023-10-06T06:12:32.139Z,247
2023-10-06T06:13:05.277Z,247
2023-10-06T06:13:36.174Z,247
2023-10-06T06:14:35.487Z,247
2023-10-06T06:14:56.404Z,247
2023-10-06T06:15:29.279Z,247
2023-10-06T06:16:00.191Z,247
2023-10-06T06:16:32.877Z,245
2023-10-06T06:17:04.240Z,247
2023-10-06T06:17:35.680Z,247
2023-10-06T06:17:53.202Z,196
2023-10-06T06:18:24.123Z,196
2023-10-06T06:18:41.453Z,196
2023-10-06T06:19:12.083Z,196
2023-10-06T06:19:36.185Z,178
2023-10-06T06:20:08.531Z,197
2023-10-06T06:20:32.062Z,206
2023-10-06T06:21:05.040Z,261
2023-10-06T06:21:35.588Z,261
2023-10-06T06:21:51.850Z,233
2023-10-06T06:22:24.430Z,259
2023-10-06T06:22:41.585Z,251
2023-10-06T06:23:13.234Z,233
2023-10-06T06:23:35.428Z,233
2023-10-06T06:24:00.059Z,228
2023-10-06T06:24:32.805Z,200
2023-10-06T06:25:04.366Z,247
2023-10-06T06:25:35.517Z,247
2023-10-06T06:25:52.114Z,247
2023-10-06T06:26:24.895Z,247
2023-10-06T06:26:42.309Z,247
2023-10-06T06:27:12.251Z,213
2023-10-06T06:27:35.840Z,213
2023-10-06T06:28:00.221Z,213
2023-10-06T06:28:32.948Z,212
2023-10-06T06:29:04.220Z,220
2023-10-06T06:29:36.649Z,214
2023-10-06T06:30:08.894Z,247